Terminal Aerodrome Forecast
Issued by NWS

Home | Current Version | Previous Version | Text Only | Print | Product List | Glossary On
Versions: 1 2 3 4 5 6 7 8 9 10 11 12 13 14 15 16 17 18 19 20 21 22 23 24 25 26 27 28 29 30 31 32 33 34 35 36 37 38 39 40 41 42 43 44 45 46 47 48 49
000
FTAK31 PAFA 192337
TAFASC
TAF
PASC 192337Z 2000/2024 25025G35KT 1/4SM -SN BLSN BKN007 OVC030
      TEMPO 2000/2003 1/2SM SN BLSN
     FM200300 24025G35KT 1/2SM -SN BLSN BKN008 OVC015
     FM200600 24023G33KT 3/4SM -SN BLSN BKN008 OVC015
     FM201200 25023KT 1 1/2SM -SN BLSN SCT008 OVC015
     FM201600 25021KT 5SM BLSN SCT008 OVC015=

USA.gov is the U.S. government's official web portal to all federal, state and local government web resources and services.